createdAt,value
2023-02-24T00:02:30.050Z,99938.60
2023-02-24T00:05:08.765Z,99934.70
2023-02-24T00:07:46.443Z,99927.62
2023-02-24T00:10:26.231Z,99926.38
2023-02-24T00:13:04.107Z,99921.05
2023-02-24T00:15:41.410Z,99914.42
2023-02-24T00:18:11.533Z,99907.83
2023-02-24T00:20:45.290Z,99900.84
2023-02-24T00:23:24.269Z,99903.23
2023-02-24T00:26:07.566Z,99899.40
2023-02-24T00:28:45.009Z,99891.34
2023-02-24T00:31:24.806Z,99887.91
2023-02-24T00:34:05.568Z,99885.16
2023-02-24T00:36:43.493Z,99877.80
2023-02-24T00:39:30.310Z,99871.30
2023-02-24T00:42:09.765Z,99867.33
2023-02-24T00:44:47.246Z,99861.90
2023-02-24T00:47:24.938Z,99862.44
2023-02-24T00:49:55.303Z,99860.36
2023-02-24T00:52:33.539Z,99857.67
2023-02-24T00:55:15.494Z,99854.84
2023-02-24T00:57:46.044Z,99852.79
2023-02-24T01:00:18.963Z,99849.83
2023-02-24T01:02:49.830Z,99844.14
2023-02-24T01:05:29.946Z,99839.99
2023-02-24T01:08:08.852Z,99834.88
2023-02-24T01:11:09.512Z,99820.05
2023-02-24T01:13:49.038Z,99814.09
2023-02-24T01:16:25.820Z,99805.39
2023-02-24T01:18:55.974Z,99807.14
2023-02-24T01:21:31.829Z,99805.96
2023-02-24T01:24:10.932Z,99805.16
2023-02-24T01:26:46.784Z,99807.27
2023-02-24T01:29:26.194Z,99803.46
2023-02-24T01:32:03.755Z,99797.17
2023-02-24T01:34:42.718Z,99794.98
2023-02-24T01:37:20.359Z,99789.41
2023-02-24T01:39:57.338Z,99785.39
2023-02-24T01:42:34.756Z,99778.24
2023-02-24T01:45:19.306Z,99770.89
2023-02-24T01:47:51.229Z,99771.31
2023-02-24T01:50:29.901Z,99769.08
2023-02-24T01:53:10.250Z,99770.09
2023-02-24T01:55:50.539Z,99765.85
2023-02-24T01:58:33.239Z,99761.44
2023-02-24T02:01:14.913Z,99759.75
2023-02-24T02:03:49.385Z,99754.39
2023-02-24T02:06:26.873Z,99749.81
2023-02-24T02:08:58.640Z,99740.54
2023-02-24T02:11:33.508Z,99739.75
2023-02-24T02:14:12.002Z,99738.02
2023-02-24T02:17:06.352Z,99734.38
2023-02-24T02:20:08.220Z,99734.23
2023-02-24T02:23:29.093Z,99730.95
2023-02-24T02:26:41.722Z,99728.27
2023-02-24T02:30:04.269Z,99722.30
2023-02-24T02:33:27.805Z,99718.04
2023-02-24T02:36:13.236Z,99714.09
2023-02-24T02:39:04.186Z,99712.73
2023-02-24T02:41:45.005Z,99710.73
2023-02-24T02:44:56.306Z,99711.17
2023-02-24T02:47:54.220Z,99709.84
2023-02-24T02:50:55.276Z,99707.23
2023-02-24T02:53:41.560Z,99704.27
2023-02-24T02:56:23.365Z,99706.11
2023-02-24T02:58:57.202Z,99701.73
2023-02-24T03:01:37.262Z,99696.25
2023-02-24T03:04:18.115Z,99698.05
2023-02-24T03:07:11.869Z,99692.86
2023-02-24T03:09:52.882Z,99689.23
2023-02-24T03:12:33.178Z,99691.50
2023-02-24T03:15:14.338Z,99688.20
2023-02-24T03:17:56.823Z,99686.45
2023-02-24T03:20:48.129Z,99688.27
2023-02-24T03:23:32.549Z,99684.48
2023-02-24T03:26:23.711Z,99668.01
2023-02-24T03:29:11.459Z,99647.55
2023-02-24T03:32:15.068Z,99654.24
2023-02-24T03:35:01.258Z,99661.14
2023-02-24T03:37:37.308Z,99662.55
2023-02-24T03:40:16.069Z,99658.58
2023-02-24T03:43:00.104Z,99656.71
2023-02-24T03:45:38.766Z,99652.85
2023-02-24T03:48:15.929Z,99651.88
2023-02-24T03:50:53.578Z,99648.89
2023-02-24T03:54:03.231Z,99645.89
2023-02-24T03:57:02.179Z,99643.14
2023-02-24T04:00:23.800Z,99642.01
2023-02-24T04:03:19.508Z,99637.02
2023-02-24T04:06:16.270Z,99630.50
2023-02-24T04:09:12.189Z,99627.73
2023-02-24T04:12:04.004Z,99620.69
2023-02-24T04:15:09.623Z,99614.41
2023-02-24T04:17:59.608Z,99613.06
2023-02-24T04:20:40.595Z,99607.66
2023-02-24T04:23:23.955Z,99603.86
2023-02-24T04:26:02.745Z,99597.62
2023-02-24T04:28:41.237Z,99592.98
2023-02-24T04:31:21.419Z,99591.23
2023-02-24T04:34:00.493Z,99582.14
2023-02-24T04:36:38.748Z,99572.80
2023-02-24T04:39:19.044Z,99568.83
2023-02-24T04:41:58.266Z,99573.84
2023-02-24T04:44:35.244Z,99572.55
2023-02-24T04:47:05.428Z,99569.41
2023-02-24T04:49:43.927Z,99569.18
2023-02-24T04:52:16.541Z,99568.38
2023-02-24T04:54:54.315Z,99563.04
2023-02-24T04:57:31.476Z,99560.42
2023-02-24T05:00:27.918Z,99560.16
2023-02-24T05:02:58.861Z,99555.39
2023-02-24T05:05:38.201Z,99556.46
2023-02-24T05:08:16.196Z,99556.50
2023-02-24T05:10:47.999Z,99549.50
2023-02-24T05:13:28.322Z,99545.25
2023-02-24T05:16:09.314Z,99543.23
2023-02-24T05:18:46.453Z,99544.94
2023-02-24T05:21:38.428Z,99538.14
2023-02-24T05:24:17.516Z,99539.72
2023-02-24T05:27:15.872Z,99538.69
2023-02-24T05:29:54.729Z,99535.63
2023-02-24T05:32:34.963Z,99536.24
2023-02-24T05:35:06.549Z,99534.30
2023-02-24T05:37:42.627Z,99529.41
2023-02-24T05:40:29.822Z,99525.41
2023-02-24T05:43:04.663Z,99526.56
2023-02-24T05:45:40.608Z,99526.41
2023-02-24T05:48:19.213Z,99526.47
2023-02-24T05:51:00.000Z,99519.34
2023-02-24T05:53:30.622Z,99527.77
2023-02-24T05:56:08.521Z,99524.30
2023-02-24T05:58:45.644Z,99527.75
2023-02-24T06:01:20.764Z,99523.35
2023-02-24T06:03:51.787Z,99524.02
2023-02-24T06:06:24.027Z,99523.24
2023-02-24T06:08:55.738Z,99521.94
2023-02-24T06:11:26.384Z,99519.64
2023-02-24T06:14:07.557Z,99515.88
2023-02-24T06:16:45.466Z,99516.48
2023-02-24T06:19:25.875Z,99512.74
2023-02-24T06:22:04.377Z,99509.19
2023-02-24T06:24:45.586Z,99506.45
2023-02-24T06:27:25.486Z,99504.01
2023-02-24T06:30:03.984Z,99504.46
2023-02-24T06:32:41.159Z,99506.16
2023-02-24T06:35:17.793Z,99504.60
2023-02-24T06:37:57.975Z,99502.31
2023-02-24T06:40:35.077Z,99500.35
2023-02-24T06:43:05.454Z,99491.32
2023-02-24T06:45:41.557Z,99491.16
2023-02-24T06:48:18.882Z,99485.54
2023-02-24T06:50:57.237Z,99480.78
2023-02-24T06:53:36.436Z,99472.98
2023-02-24T06:56:20.419Z,99481.31
2023-02-24T06:58:59.529Z,99482.23
2023-02-24T07:01:45.926Z,99482.19
2023-02-24T07:04:27.880Z,99482.06
2023-02-24T07:07:03.809Z,99475.90
2023-02-24T07:09:37.285Z,99475.74
2023-02-24T07:12:17.577Z,99475.28
2023-02-24T07:14:54.359Z,99476.01
2023-02-24T07:17:31.063Z,99469.64
2023-02-24T07:20:12.710Z,99468.92
2023-02-24T07:22:44.387Z,99466.99
2023-02-24T07:25:33.817Z,99463.17
2023-02-24T07:28:12.435Z,99461.71
2023-02-24T07:30:43.793Z,99458.97
2023-02-24T07:33:23.673Z,99460.58
2023-02-24T07:35:54.299Z,99457.07
2023-02-24T07:38:24.385Z,99456.20
2023-02-24T07:41:03.127Z,99456.39
2023-02-24T07:43:38.897Z,99451.63
2023-02-24T07:46:24.977Z,99454.90
2023-02-24T07:49:03.993Z,99451.66
2023-02-24T07:51:37.636Z,99451.08
2023-02-24T07:54:16.099Z,99449.84
2023-02-24T07:56:59.965Z,99444.44
2023-02-24T07:59:38.756Z,99442.42
2023-02-24T08:02:16.579Z,99440.70
2023-02-24T08:04:55.955Z,99441.05
2023-02-24T08:07:34.104Z,99437.50
2023-02-24T08:10:24.610Z,99438.65
2023-02-24T08:13:03.531Z,99435.16
2023-02-24T08:15:39.206Z,99422.58
2023-02-24T08:18:20.684Z,99429.96
2023-02-24T08:21:05.222Z,99427.31
2023-02-24T08:23:45.151Z,99425.83
2023-02-24T08:26:30.733Z,99422.66
2023-02-24T08:29:12.956Z,99419.88
2023-02-24T08:31:45.374Z,99417.05
2023-02-24T08:34:28.007Z,99411.98
2023-02-24T08:37:05.156Z,99403.80
2023-02-24T08:39:40.339Z,99404.87
2023-02-24T08:42:14.613Z,99405.13
2023-02-24T08:44:54.378Z,99402.54
2023-02-24T08:47:36.514Z,99398.30
2023-02-24T08:50:15.944Z,99399.52
2023-02-24T08:52:54.195Z,99399.05
2023-02-24T08:55:33.628Z,99395.04
2023-02-24T08:58:19.990Z,99387.88
2023-02-24T09:00:59.682Z,99386.41
2023-02-24T09:03:46.392Z,99382.52
2023-02-24T09:06:27.607Z,99376.52
2023-02-24T09:09:19.890Z,99371.70
2023-02-24T09:12:00.727Z,99372.89
2023-02-24T09:14:39.619Z,99367.29
2023-02-24T09:17:20.968Z,99363.30
2023-02-24T09:20:15.119Z,99366.91
2023-02-24T09:23:01.290Z,99362.68
2023-02-24T09:25:50.258Z,99359.73
2023-02-24T09:28:29.579Z,99356.10
2023-02-24T09:31:07.406Z,99351.20
2023-02-24T09:33:43.095Z,99351.36
2023-02-24T09:36:40.686Z,99352.31
2023-02-24T09:39:23.815Z,99347.63
2023-02-24T09:42:12.155Z,99342.58
2023-02-24T09:45:03.278Z,99340.91
2023-02-24T09:47:56.196Z,99343.29
2023-02-24T09:51:30.551Z,99340.37
2023-02-24T09:54:14.575Z,99333.27
2023-02-24T09:57:17.620Z,99329.24
2023-02-24T10:00:36.592Z,99326.14
2023-02-24T10:03:43.105Z,99327.30
2023-02-24T10:06:38.717Z,99324.20
2023-02-24T10:09:35.928Z,99322.05
2023-02-24T10:12:29.568Z,99320.36
2023-02-24T10:15:19.991Z,99315.84
2023-02-24T10:18:00.286Z,99315.64
2023-02-24T10:20:49.599Z,99311.64
2023-02-24T10:24:02.846Z,99311.46
2023-02-24T10:26:59.688Z,99305.80
2023-02-24T10:30:21.810Z,99309.06
2023-02-24T10:33:06.027Z,99311.50
2023-02-24T10:35:42.236Z,99310.10
2023-02-24T10:38:20.468Z,99306.71
2023-02-24T10:41:07.544Z,99299.19
2023-02-24T10:43:57.512Z,99295.32
2023-02-24T10:46:42.110Z,99289.33
2023-02-24T10:49:28.214Z,99283.42
2023-02-24T10:52:11.827Z,99280.02
2023-02-24T10:55:29.170Z,99280.27
2023-02-24T10:58:40.665Z,99275.73
2023-02-24T11:01:50.018Z,99270.95
2023-02-24T11:04:59.664Z,99269.83
2023-02-24T11:07:55.525Z,99265.14
2023-02-24T11:10:44.111Z,99255.91
2023-02-24T11:13:44.052Z,99256.74
2023-02-24T11:16:42.854Z,99247.83
2023-02-24T11:19:19.795Z,99246.81
2023-02-24T11:21:57.564Z,99239.02
2023-02-24T11:24:33.292Z,99231.09
2023-02-24T11:27:13.015Z,99230.84
2023-02-24T11:30:17.742Z,99225.59
2023-02-24T11:33:12.315Z,99221.45
2023-02-24T11:36:04.362Z,99221.67
2023-02-24T11:39:42.551Z,99215.27
2023-02-24T11:42:29.697Z,99207.80
2023-02-24T11:45:25.266Z,99203.74
2023-02-24T11:48:26.216Z,99203.45
2023-02-24T11:51:24.563Z,99197.11
2023-02-24T11:54:19.932Z,99191.91
2023-02-24T11:57:02.944Z,99182.27
2023-02-24T11:59:53.161Z,99181.49
2023-02-24T12:03:15.640Z,99180.47
2023-02-24T12:05:57.267Z,99179.23
2023-02-24T12:08:40.347Z,99180.48
2023-02-24T12:11:40.815Z,99173.86
2023-02-24T12:14:42.435Z,99171.17
2023-02-24T12:17:45.224Z,99166.01
2023-02-24T12:21:01.165Z,99159.20
2023-02-24T12:23:45.147Z,99159.26
2023-02-24T12:26:29.441Z,99157.25
2023-02-24T12:29:51.752Z,99152.34
2023-02-24T12:33:21.355Z,99145.55
2023-02-24T12:36:46.522Z,99140.59
2023-02-24T12:39:59.286Z,99133.66
2023-02-24T12:43:04.292Z,99134.23
2023-02-24T12:46:31.181Z,99130.66
2023-02-24T12:49:40.373Z,99122.83
2023-02-24T12:52:45.620Z,99121.77
2023-02-24T12:55:42.618Z,99114.79
2023-02-24T12:58:29.043Z,99109.10
2023-02-24T13:01:27.680Z,99108.09
2023-02-24T13:04:26.630Z,99104.30
2023-02-24T13:07:43.402Z,99102.50
2023-02-24T13:10:33.278Z,99101.00
2023-02-24T13:13:33.951Z,99096.51
2023-02-24T13:16:15.753Z,99095.10
2023-02-24T13:18:49.876Z,99089.73
2023-02-24T13:21:30.866Z,99083.23
2023-02-24T13:24:22.680Z,99079.16
2023-02-24T13:27:15.789Z,99075.09
2023-02-24T13:30:04.527Z,99070.33
2023-02-24T13:32:47.758Z,99068.77
2023-02-24T13:35:28.896Z,99067.42
2023-02-24T13:38:24.471Z,99062.49
2023-02-24T13:41:31.348Z,99062.30
2023-02-24T13:44:30.451Z,99057.30
2023-02-24T13:48:01.340Z,99054.14
2023-02-24T13:51:09.175Z,99050.15
2023-02-24T13:54:22.164Z,99047.32
2023-02-24T13:57:34.433Z,99036.45
2023-02-24T14:00:56.938Z,99037.46
2023-02-24T14:03:46.316Z,99036.41
2023-02-24T14:06:38.820Z,99031.37
2023-02-24T14:09:19.397Z,99035.61
2023-02-24T14:12:04.833Z,99028.77
2023-02-24T14:14:39.930Z,99030.73
2023-02-24T14:17:40.803Z,99033.54
2023-02-24T14:20:26.460Z,99034.23
2023-02-24T14:23:24.006Z,99037.02
2023-02-24T14:26:05.724Z,99034.52
2023-02-24T14:28:42.093Z,99030.41
2023-02-24T14:31:22.984Z,99021.52
2023-02-24T14:34:04.530Z,99014.52
2023-02-24T14:36:46.984Z,99005.50
2023-02-24T14:39:30.115Z,99000.20
2023-02-24T14:42:16.924Z,98999.80
2023-02-24T14:45:02.849Z,98994.04
2023-02-24T14:47:45.442Z,98995.70
2023-02-24T14:50:29.833Z,98990.37
2023-02-24T14:53:17.387Z,98983.23
2023-02-24T14:56:03.432Z,98988.41
2023-02-24T14:58:53.115Z,98979.54
2023-02-24T15:01:48.879Z,98975.20
2023-02-24T15:04:40.423Z,98975.00
2023-02-24T15:07:31.535Z,98980.52
2023-02-24T15:10:21.728Z,98977.44
2023-02-24T15:13:18.306Z,98974.61
2023-02-24T15:15:52.519Z,98974.91
2023-02-24T15:18:33.748Z,98972.02
2023-02-24T15:21:32.602Z,98964.27
2023-02-24T15:24:35.566Z,98964.56
2023-02-24T15:27:18.339Z,98963.02
2023-02-24T15:30:33.514Z,98958.14
2023-02-24T15:33:26.394Z,98952.02
2023-02-24T15:36:00.806Z,98952.09
2023-02-24T15:38:41.091Z,98951.75
2023-02-24T15:41:18.091Z,98945.98
2023-02-24T15:43:57.519Z,98941.44
2023-02-24T15:46:39.168Z,98946.75
2023-02-24T15:49:16.323Z,98945.74
2023-02-24T15:51:55.227Z,98946.20
2023-02-24T15:54:43.623Z,98943.45
2023-02-24T15:57:20.320Z,98943.82
2023-02-24T15:59:58.314Z,98940.27
2023-02-24T16:02:35.902Z,98941.61
2023-02-24T16:05:17.553Z,98943.23
2023-02-24T16:07:49.766Z,98947.19
2023-02-24T16:10:32.318Z,98943.32
2023-02-24T16:13:10.781Z,98941.93
2023-02-24T16:15:48.718Z,98945.46
2023-02-24T16:18:26.980Z,98946.44
2023-02-24T16:21:04.417Z,98948.70
2023-02-24T16:23:41.550Z,98945.89
2023-02-24T16:26:23.972Z,98953.09
2023-02-24T16:29:02.530Z,98956.58
2023-02-24T16:31:41.195Z,98960.06
2023-02-24T16:34:19.637Z,98960.72
2023-02-24T16:36:56.379Z,98963.58
2023-02-24T16:39:27.496Z,98962.71
2023-02-24T16:42:00.353Z,98962.73
2023-02-24T16:44:38.494Z,98964.94
2023-02-24T16:47:21.443Z,98963.92
2023-02-24T16:50:00.852Z,98960.75
2023-02-24T16:52:38.170Z,98962.35
2023-02-24T16:55:17.480Z,98960.73
2023-02-24T16:57:54.326Z,98961.92
2023-02-24T17:00:32.735Z,98966.60
2023-02-24T17:03:31.492Z,98972.05
2023-02-24T17:06:02.115Z,98963.58
2023-02-24T17:08:42.018Z,98961.10
2023-02-24T17:11:22.508Z,98964.40
2023-02-24T17:14:01.130Z,98964.64
2023-02-24T17:16:40.678Z,98965.62
2023-02-24T17:19:18.051Z,98968.69
2023-02-24T17:21:54.870Z,98968.45
2023-02-24T17:24:31.557Z,98967.46
2023-02-24T17:27:08.917Z,98968.90
2023-02-24T17:29:45.524Z,98956.65
2023-02-24T17:32:15.843Z,98953.16
2023-02-24T17:34:46.304Z,98944.54
2023-02-24T17:37:22.513Z,98942.54
2023-02-24T17:39:52.724Z,98948.57
2023-02-24T17:42:29.364Z,98946.33
2023-02-24T17:45:07.482Z,98941.61
2023-02-24T17:47:45.083Z,98940.54
2023-02-24T17:50:22.277Z,98934.33
2023-02-24T17:52:59.344Z,98937.23
2023-02-24T17:55:36.335Z,98934.09
2023-02-24T17:58:07.041Z,98934.33
2023-02-24T18:00:43.007Z,98927.41
2023-02-24T18:03:20.810Z,98924.09
2023-02-24T18:06:06.289Z,98916.11
2023-02-24T18:08:43.126Z,98921.55
2023-02-24T18:11:21.238Z,98918.54
2023-02-24T18:14:00.512Z,98914.81
2023-02-24T18:16:37.842Z,98908.02
2023-02-24T18:19:15.285Z,98904.19
2023-02-24T18:21:52.267Z,98904.77
2023-02-24T18:24:29.703Z,98901.98
2023-02-24T18:26:59.765Z,98901.95
2023-02-24T18:29:37.997Z,98902.30
2023-02-24T18:32:08.194Z,98900.98
2023-02-24T18:34:44.379Z,98901.92
2023-02-24T18:37:22.457Z,98899.84
2023-02-24T18:39:59.182Z,98898.81
2023-02-24T18:42:36.268Z,98891.31
2023-02-24T18:45:13.784Z,98881.89
2023-02-24T18:47:52.515Z,98867.15
2023-02-24T18:50:29.224Z,98872.27
2023-02-24T18:53:06.883Z,98869.40
2023-02-24T18:55:44.578Z,98872.75
2023-02-24T18:58:20.779Z,98869.88
2023-02-24T19:00:57.666Z,98869.73
2023-02-24T19:03:27.791Z,98865.95
2023-02-24T19:06:04.797Z,98861.08
2023-02-24T19:08:41.893Z,98860.13
2023-02-24T19:11:22.661Z,98850.79
2023-02-24T19:14:01.030Z,98848.59
2023-02-24T19:16:38.657Z,98846.11
2023-02-24T19:19:17.969Z,98838.85
2023-02-24T19:21:54.662Z,98835.96
2023-02-24T19:24:32.427Z,98829.20
2023-02-24T19:27:11.528Z,98824.76
2023-02-24T19:29:48.746Z,98825.33
2023-02-24T19:32:25.993Z,98826.33
2023-02-24T19:35:03.191Z,98820.54
2023-02-24T19:37:40.331Z,98819.96
2023-02-24T19:40:18.586Z,98813.86
2023-02-24T19:42:53.756Z,98804.70
2023-02-24T19:45:27.213Z,98802.34
2023-02-24T19:48:05.122Z,98802.39
2023-02-24T19:50:46.835Z,98801.46
2023-02-24T19:53:23.848Z,98798.36
2023-02-24T19:56:00.691Z,98799.80
2023-02-24T19:58:39.083Z,98803.16
2023-02-24T20:01:18.800Z,98802.16
2023-02-24T20:03:58.961Z,98802.69
2023-02-24T20:06:40.689Z,98806.44
2023-02-24T20:09:22.370Z,98808.41
2023-02-24T20:11:59.668Z,98804.20
2023-02-24T20:14:37.274Z,98801.44
2023-02-24T20:17:08.317Z,98797.52
2023-02-24T20:19:39.883Z,98788.08
2023-02-24T20:22:15.729Z,98793.91
2023-02-24T20:24:48.161Z,98795.69
2023-02-24T20:27:24.776Z,98791.67
2023-02-24T20:30:05.150Z,98786.55
2023-02-24T20:32:43.295Z,98779.39
2023-02-24T20:35:21.809Z,98780.70
2023-02-24T20:37:58.288Z,98783.16
2023-02-24T20:40:37.150Z,98782.95
2023-02-24T20:43:10.601Z,98777.55
2023-02-24T20:45:41.310Z,98775.96
2023-02-24T20:48:12.182Z,98776.96
2023-02-24T20:50:48.684Z,98770.46
2023-02-24T20:53:25.671Z,98770.45
2023-02-24T20:56:07.733Z,98763.13
2023-02-24T20:58:44.553Z,98762.98
2023-02-24T21:01:22.694Z,98756.01
2023-02-24T21:03:59.501Z,98751.72
2023-02-24T21:06:36.788Z,98743.91
2023-02-24T21:09:08.059Z,98737.43
2023-02-24T21:11:39.365Z,98738.82
2023-02-24T21:14:19.478Z,98740.08
2023-02-24T21:16:50.612Z,98740.48
2023-02-24T21:19:28.630Z,98734.72
2023-02-24T21:22:05.743Z,98729.54
2023-02-24T21:24:42.334Z,98722.07
2023-02-24T21:27:13.083Z,98713.06
2023-02-24T21:29:46.667Z,98713.80
2023-02-24T21:32:18.160Z,98713.83
2023-02-24T21:34:50.437Z,98711.48
2023-02-24T21:37:21.233Z,98709.47
2023-02-24T21:39:52.109Z,98704.48
2023-02-24T21:42:23.317Z,98699.63
2023-02-24T21:45:02.747Z,98687.63
2023-02-24T21:47:33.539Z,98686.48
2023-02-24T21:50:12.223Z,98682.61
2023-02-24T21:52:49.429Z,98676.92
2023-02-24T21:55:26.753Z,98670.87
2023-02-24T21:58:03.912Z,98672.56
2023-02-24T22:00:41.396Z,98663.77
2023-02-24T22:03:11.609Z,98660.92
2023-02-24T22:05:54.072Z,98656.47
2023-02-24T22:08:31.112Z,98650.61
2023-02-24T22:11:02.592Z,98640.93
2023-02-24T22:13:33.399Z,98639.09
2023-02-24T22:16:12.918Z,98646.73
2023-02-24T22:18:47.216Z,98646.27
2023-02-24T22:21:26.498Z,98644.98
2023-02-24T22:24:06.018Z,98637.33
2023-02-24T22:26:42.885Z,98629.77
2023-02-24T22:29:20.484Z,98631.80
2023-02-24T22:31:56.985Z,98626.65
2023-02-24T22:34:34.204Z,98620.40
2023-02-24T22:37:04.486Z,98610.42
2023-02-24T22:39:35.653Z,98605.52
2023-02-24T22:42:09.605Z,98600.85
2023-02-24T22:44:47.451Z,98599.78
2023-02-24T22:47:24.538Z,98597.77
2023-02-24T22:49:55.180Z,98598.08
2023-02-24T22:52:32.824Z,98585.48
2023-02-24T22:55:10.374Z,98582.39
2023-02-24T22:57:47.476Z,98581.24
2023-02-24T23:00:23.399Z,98583.80
2023-02-24T23:02:53.449Z,98576.55
2023-02-24T23:05:31.638Z,98576.29
2023-02-24T23:08:08.760Z,98582.22
2023-02-24T23:10:45.517Z,98574.77
2023-02-24T23:13:17.057Z,98564.64
2023-02-24T23:15:51.492Z,98557.73
2023-02-24T23:18:28.070Z,98555.10
2023-02-24T23:21:05.795Z,98552.75
2023-02-24T23:23:38.087Z,98552.73
2023-02-24T23:26:11.817Z,98551.74
2023-02-24T23:28:50.370Z,98550.72
2023-02-24T23:31:26.665Z,98552.89
2023-02-24T23:34:07.565Z,98552.33
2023-02-24T23:36:46.681Z,98543.93
2023-02-24T23:39:24.325Z,98536.70
2023-02-24T23:42:01.427Z,98536.49
2023-02-24T23:44:40.348Z,98527.52
2023-02-24T23:47:10.487Z,98517.63
2023-02-24T23:49:48.839Z,98509.52
2023-02-24T23:52:26.185Z,98494.42
2023-02-24T23:55:03.864Z,98487.71
2023-02-24T23:57:40.977Z,98487.38
